Time;durP1;ratioP1;P1;durP2;ratioP2;P2;SDS_P1;SDS_P2;PMS_P1;PMS_P2;Temp;Humidity;BMP_temperature;BMP_pressure;BME280_temperature;BME280_humidity;BME280_pressure;Samples;Min_cycle;Max_cycle;Signal;HPM_P1;HPM_P2
2024/01/16 00:01:43;;;;;;;10.57;10.27;;;20.90;42.80;;;;;;5051854;28;20592;-62
2024/01/16 00:04:12;;;;;;;10.37;10.07;;;20.90;42.90;;;;;;5046316;28;20440;-64
2024/01/16 00:06:40;;;;;;;10.77;10.47;;;20.90;42.90;;;;;;5051114;28;20468;-63
2024/01/16 00:09:07;;;;;;;10.07;9.80;;;21.00;43.10;;;;;;5052003;28;20491;-62
2024/01/16 00:11:34;;;;;;;10.07;9.80;;;20.90;42.90;;;;;;5049105;28;20465;-62
2024/01/16 00:14:01;;;;;;;10.10;9.87;;;20.90;42.90;;;;;;5051732;28;20463;-63
2024/01/16 00:16:27;;;;;;;10.50;9.90;;;20.90;42.90;;;;;;5051632;28;20468;-62
2024/01/16 00:18:54;;;;;;;10.33;10.07;;;20.90;42.90;;;;;;5062701;22;20916;-64
2024/01/16 00:21:22;;;;;;;11.00;10.53;;;20.90;43.00;;;;;;5042493;28;20552;-64
2024/01/16 00:23:49;;;;;;;10.10;9.80;;;20.90;43.00;;;;;;5042611;28;20481;-65
2024/01/16 00:26:23;;;;;;;10.30;10.00;;;20.90;43.00;;;;;;5043283;28;20939;-65
2024/01/16 00:28:49;;;;;;;10.13;9.90;;;20.90;43.00;;;;;;5042010;28;20488;-65
2024/01/16 00:31:16;;;;;;;10.53;10.23;;;20.90;43.00;;;;;;5043131;28;20436;-64
2024/01/16 00:33:43;;;;;;;9.70;9.40;;;20.90;43.00;;;;;;5041738;28;20464;-64
2024/01/16 00:36:10;;;;;;;10.17;9.87;;;20.80;43.00;;;;;;5039689;28;20480;-64
2024/01/16 00:38:38;;;;;;;9.87;9.57;;;20.80;42.90;;;;;;5039108;28;20492;-64
2024/01/16 00:41:06;;;;;;;9.43;9.13;;;20.90;43.00;;;;;;5033707;28;20507;-65
2024/01/16 00:43:35;;;;;;;9.40;9.20;;;20.90;43.10;;;;;;5039818;28;20481;-65
2024/01/16 00:46:01;;;;;;;9.23;9.03;;;20.80;43.00;;;;;;5043104;28;20445;-65
2024/01/16 00:48:28;;;;;;;9.60;9.33;;;20.80;43.00;;;;;;5039625;28;20510;-64
2024/01/16 00:50:55;;;;;;;10.40;9.90;;;20.90;43.10;;;;;;5039783;28;20469;-65
2024/01/16 00:53:22;;;;;;;10.00;9.70;;;20.80;43.10;;;;;;5039538;28;20468;-65
2024/01/16 00:55:52;;;;;;;9.80;9.50;;;20.80;43.10;;;;;;5041881;28;20480;-64
2024/01/16 00:58:19;;;;;;;9.90;9.60;;;20.90;43.20;;;;;;5039754;28;20448;-65
2024/01/16 01:00:45;;;;;;;10.40;10.20;;;20.90;43.30;;;;;;5040274;28;20503;-64
2024/01/16 01:03:12;;;;;;;11.50;11.20;;;20.80;43.20;;;;;;5033342;28;21210;-64
2024/01/16 01:05:39;;;;;;;9.53;9.33;;;20.90;43.30;;;;;;5040321;28;20873;-64
2024/01/16 01:08:07;;;;;;;10.30;9.80;;;20.80;43.20;;;;;;5040010;28;20475;-65
2024/01/16 01:10:34;;;;;;;9.60;9.30;;;20.80;43.30;;;;;;5042866;28;20512;-64
2024/01/16 01:13:02;;;;;;;9.90;9.60;;;20.80;43.20;;;;;;5039367;28;20844;-65
2024/01/16 01:15:29;;;;;;;9.50;9.30;;;20.80;43.30;;;;;;5039297;28;20445;-64
2024/01/16 01:17:56;;;;;;;9.23;8.97;;;20.80;43.40;;;;;;5040027;28;21000;-64
2024/01/16 01:20:23;;;;;;;9.63;9.23;;;20.80;43.40;;;;;;5043071;28;20983;-64
2024/01/16 01:22:50;;;;;;;9.17;8.97;;;20.80;43.40;;;;;;5045361;28;20877;-65
2024/01/16 01:25:17;;;;;;;9.73;9.40;;;20.80;43.40;;;;;;5046566;28;20479;-65
2024/01/16 01:27:44;;;;;;;9.80;9.43;;;20.80;43.30;;;;;;5045729;28;20483;-65
2024/01/16 01:30:13;;;;;;;9.40;9.10;;;20.80;43.40;;;;;;5046414;28;20464;-64
2024/01/16 01:32:40;;;;;;;9.40;9.20;;;20.80;43.40;;;;;;5045537;28;20494;-65
2024/01/16 01:35:08;;;;;;;10.10;9.60;;;20.80;43.40;;;;;;5043101;28;21002;-64
2024/01/16 01:37:34;;;;;;;9.60;9.20;;;20.80;43.40;;;;;;5042958;28;20487;-65
2024/01/16 01:40:01;;;;;;;10.20;9.73;;;20.80;43.50;;;;;;5042651;28;20964;-64
2024/01/16 01:42:28;;;;;;;9.80;9.60;;;20.80;43.40;;;;;;5042757;28;20867;-65
2024/01/16 01:44:55;;;;;;;9.70;9.50;;;20.80;43.40;;;;;;5045790;28;20471;-65
2024/01/16 01:47:24;;;;;;;9.90;9.50;;;20.80;43.40;;;;;;5046134;28;20440;-65
2024/01/16 01:49:51;;;;;;;10.00;9.70;;;20.80;43.30;;;;;;5043807;28;20502;-65
2024/01/16 01:52:19;;;;;;;9.97;9.67;;;20.80;43.30;;;;;;5042596;28;20466;-65
2024/01/16 01:54:46;;;;;;;10.17;9.80;;;20.80;43.30;;;;;;5043980;28;20479;-64
2024/01/16 01:57:13;;;;;;;9.80;9.50;;;20.70;43.20;;;;;;5046170;28;20468;-65
2024/01/16 01:59:40;;;;;;;9.40;9.17;;;20.80;43.40;;;;;;5045086;28;21002;-64
2024/01/16 02:02:07;;;;;;;9.60;9.30;;;20.80;43.40;;;;;;5042251;28;20509;-65
2024/01/16 02:04:36;;;;;;;9.63;9.33;;;20.80;43.30;;;;;;5042389;28;20477;-65
2024/01/16 02:07:03;;;;;;;9.30;9.10;;;20.80;43.30;;;;;;5038099;28;20484;-65
2024/01/16 02:09:31;;;;;;;9.27;9.07;;;20.80;43.30;;;;;;5045728;28;20543;-65
2024/01/16 02:11:58;;;;;;;9.40;9.20;;;20.70;43.80;;;;;;5042457;28;20433;-65
2024/01/16 02:14:25;;;;;;;9.80;9.50;;;20.80;43.40;;;;;;5042339;28;20473;-65
2024/01/16 02:16:52;;;;;;;9.47;9.23;;;20.70;43.30;;;;;;5037055;28;20442;-64
2024/01/16 02:19:19;;;;;;;9.47;9.17;;;20.80;43.40;;;;;;5045434;28;20890;-65
2024/01/16 02:21:48;;;;;;;9.53;9.20;;;20.70;43.30;;;;;;5043994;28;20764;-65
2024/01/16 02:24:18;;;;;;;10.00;9.50;;;20.80;43.30;;;;;;5040949;28;20442;-65
2024/01/16 02:26:45;;;;;;;9.87;9.37;;;20.70;43.30;;;;;;5043278;28;20480;-64
2024/01/16 02:29:12;;;;;;;9.67;9.37;;;20.80;43.50;;;;;;5045327;28;20492;-64
2024/01/16 02:31:39;;;;;;;9.87;9.57;;;20.70;43.40;;;;;;5044119;28;20444;-65
2024/01/16 02:34:06;;;;;;;9.80;9.60;;;20.70;43.40;;;;;;5039784;28;20469;-65
2024/01/16 02:36:33;;;;;;;9.47;9.17;;;20.80;43.40;;;;;;5040595;28;20470;-65
2024/01/16 02:39:00;;;;;;;9.27;9.03;;;20.80;43.30;;;;;;5045151;28;20848;-65
2024/01/16 02:41:29;;;;;;;9.80;9.53;;;20.70;43.20;;;;;;5045075;28;20935;-65
2024/01/16 02:43:55;;;;;;;9.43;9.13;;;20.70;43.80;;;;;;5040325;28;20499;-64
2024/01/16 02:46:23;;;;;;;9.27;9.07;;;20.70;43.30;;;;;;5041780;28;20455;-65
2024/01/16 02:48:50;;;;;;;10.37;10.10;;;20.70;43.40;;;;;;5043179;28;20496;-65
2024/01/16 02:51:17;;;;;;;9.80;9.50;;;20.70;43.30;;;;;;5045101;28;20519;-64
2024/01/16 02:53:43;;;;;;;9.87;9.67;;;20.70;43.30;;;;;;5042048;28;20527;-65
2024/01/16 02:56:10;;;;;;;9.67;9.40;;;20.70;43.20;;;;;;5041489;28;20507;-65
2024/01/16 02:58:39;;;;;;;9.60;9.40;;;20.70;43.20;;;;;;5041340;28;20512;-65
2024/01/16 03:01:05;;;;;;;10.03;9.67;;;20.70;43.20;;;;;;5033576;28;21006;-65
2024/01/16 03:03:33;;;;;;;9.80;9.50;;;20.70;43.20;;;;;;5045080;28;20455;-64
2024/01/16 03:06:00;;;;;;;9.90;9.60;;;20.70;43.30;;;;;;5041565;28;20548;-65
2024/01/16 03:08:26;;;;;;;9.90;9.70;;;20.70;43.30;;;;;;5041228;28;20544;-64
2024/01/16 03:10:53;;;;;;;9.50;9.30;;;20.70;43.20;;;;;;5043237;28;20469;-65
2024/01/16 03:13:20;;;;;;;10.50;10.10;;;20.70;43.20;;;;;;5038388;28;20465;-63
2024/01/16 03:15:48;;;;;;;10.00;9.80;;;20.70;43.30;;;;;;5042453;28;20928;-63
2024/01/16 03:18:15;;;;;;;10.67;10.27;;;20.70;43.30;;;;;;5044263;28;20475;-63
2024/01/16 03:20:42;;;;;;;10.37;10.07;;;20.70;43.40;;;;;;5043698;28;20472;-63
2024/01/16 03:23:09;;;;;;;10.27;9.83;;;20.70;43.30;;;;;;5041942;28;20935;-63
2024/01/16 03:25:38;;;;;;;10.10;9.90;;;20.70;43.30;;;;;;5044373;28;20468;-63
2024/01/16 03:28:07;;;;;;;10.23;9.93;;;20.70;43.30;;;;;;5032951;28;20453;-63
2024/01/16 03:30:35;;;;;;;10.53;10.23;;;20.70;43.30;;;;;;5040769;28;20967;-64
2024/01/16 03:33:03;;;;;;;10.30;10.00;;;20.70;43.20;;;;;;5035052;28;20521;-65
2024/01/16 03:35:30;;;;;;;9.93;9.70;;;20.70;43.40;;;;;;5040733;28;20480;-65
2024/01/16 03:37:57;;;;;;;10.10;9.90;;;20.70;43.40;;;;;;5043021;28;20477;-65
2024/01/16 03:40:24;;;;;;;10.20;10.00;;;20.70;43.40;;;;;;5044162;28;20460;-65
2024/01/16 03:42:51;;;;;;;10.03;9.70;;;20.70;43.40;;;;;;5034713;28;20515;-65
2024/01/16 03:45:17;;;;;;;10.73;10.33;;;20.70;43.40;;;;;;5040496;28;20537;-65
2024/01/16 03:47:44;;;;;;;10.73;10.33;;;20.70;43.40;;;;;;5041031;28;20870;-65
2024/01/16 03:50:13;;;;;;;10.40;10.10;;;20.70;43.40;;;;;;5043906;28;20464;-64
2024/01/16 03:52:40;;;;;;;10.10;9.80;;;20.70;43.40;;;;;;5037455;28;20479;-65
2024/01/16 03:55:07;;;;;;;10.17;9.97;;;20.70;43.40;;;;;;5040540;28;20469;-65
2024/01/16 03:57:34;;;;;;;10.73;10.43;;;20.70;43.40;;;;;;5040508;28;20473;-65
2024/01/16 04:00:01;;;;;;;10.40;10.10;;;20.70;43.40;;;;;;5043091;28;20480;-65
2024/01/16 04:02:28;;;;;;;10.60;10.30;;;20.70;43.30;;;;;;5037434;28;20480;-65
2024/01/16 04:04:55;;;;;;;11.37;11.07;;;20.70;43.30;;;;;;5041666;28;20467;-64
2024/01/16 04:07:26;;;;;;;11.90;11.60;;;20.70;43.30;;;;;;5040229;28;21151;-65
2024/01/16 04:09:53;;;;;;;10.83;10.53;;;20.70;43.30;;;;;;5041878;28;20832;-64
2024/01/16 04:12:20;;;;;;;12.10;11.80;;;20.70;43.30;;;;;;5037615;28;20464;-65
2024/01/16 04:14:47;;;;;;;11.60;11.30;;;20.70;43.40;;;;;;5042464;28;20476;-65
2024/01/16 04:17:13;;;;;;;10.53;10.23;;;20.70;43.40;;;;;;5040135;28;20484;-64
2024/01/16 04:19:40;;;;;;;10.50;10.30;;;20.70;43.40;;;;;;5040095;28;20572;-65
2024/01/16 04:22:07;;;;;;;11.40;10.97;;;20.70;43.40;;;;;;5023556;28;20511;-65
2024/01/16 04:24:35;;;;;;;11.20;10.90;;;20.70;43.40;;;;;;5043231;28;20483;-64
2024/01/16 04:27:03;;;;;;;10.90;10.60;;;20.70;43.30;;;;;;5040183;28;20564;-64
2024/01/16 04:29:30;;;;;;;11.70;11.20;;;20.70;43.40;;;;;;5039763;28;20493;-65
2024/01/16 04:31:58;;;;;;;10.80;10.50;;;20.70;43.40;;;;;;5040037;28;20794;-65
2024/01/16 04:34:24;;;;;;;10.80;10.50;;;20.70;43.40;;;;;;5043347;28;20467;-65
2024/01/16 04:36:51;;;;;;;11.13;10.83;;;20.70;43.40;;;;;;5041738;28;20436;-65
2024/01/16 04:39:18;;;;;;;11.40;11.00;;;20.70;43.40;;;;;;5039842;28;20484;-64
2024/01/16 04:41:46;;;;;;;11.20;10.90;;;20.70;43.40;;;;;;5039536;28;20922;-65
2024/01/16 04:44:13;;;;;;;11.20;10.90;;;20.70;43.40;;;;;;5039765;28;20469;-65
2024/01/16 04:46:40;;;;;;;11.17;10.87;;;20.70;43.40;;;;;;5039874;28;20829;-65
2024/01/16 04:49:07;;;;;;;11.40;11.00;;;20.70;43.30;;;;;;5034167;28;20503;-65
2024/01/16 04:51:34;;;;;;;11.10;10.80;;;20.70;43.40;;;;;;5043023;28;20468;-65
2024/01/16 04:54:01;;;;;;;12.37;11.90;;;20.70;43.40;;;;;;5042590;28;20468;-65
2024/01/16 04:56:28;;;;;;;11.80;11.47;;;20.70;43.40;;;;;;5044022;28;20467;-65
2024/01/16 04:58:56;;;;;;;11.23;10.83;;;20.70;43.30;;;;;;5038527;28;20486;-65
2024/01/16 05:01:23;;;;;;;11.70;11.40;;;20.70;43.40;;;;;;5037127;28;20473;-63
2024/01/16 05:03:50;;;;;;;11.57;11.23;;;20.70;43.30;;;;;;5042189;28;20936;-63
2024/01/16 05:06:17;;;;;;;11.13;10.83;;;20.70;43.40;;;;;;5047105;28;20472;-63
2024/01/16 05:08:44;;;;;;;11.70;11.30;;;20.70;43.30;;;;;;5030911;28;20806;-63
2024/01/16 05:11:11;;;;;;;11.57;11.27;;;20.70;43.40;;;;;;5046455;28;20444;-63
2024/01/16 05:13:38;;;;;;;12.10;11.80;;;20.70;43.40;;;;;;5046793;28;20495;-63
2024/01/16 05:16:06;;;;;;;12.27;11.87;;;20.70;43.50;;;;;;5046335;28;20834;-63
2024/01/16 05:18:33;;;;;;;11.83;11.53;;;20.70;43.50;;;;;;5046645;28;20484;-63
2024/01/16 05:21:02;;;;;;;12.33;11.93;;;20.70;43.60;;;;;;5038423;28;20972;-63
2024/01/16 05:23:29;;;;;;;12.50;12.10;;;20.70;43.60;;;;;;5046639;28;20506;-63
2024/01/16 05:25:55;;;;;;;11.70;11.40;;;20.70;43.60;;;;;;5045012;28;20468;-63
2024/01/16 05:28:22;;;;;;;12.40;12.00;;;20.70;43.70;;;;;;5043141;28;20472;-63
2024/01/16 05:30:49;;;;;;;12.00;11.70;;;20.70;43.60;;;;;;5037928;28;20616;-63
2024/01/16 05:33:17;;;;;;;12.00;11.70;;;20.70;43.60;;;;;;5046535;28;20464;-63
2024/01/16 05:35:44;;;;;;;13.00;12.30;;;20.70;43.50;;;;;;5046453;28;20476;-63
2024/01/16 05:38:12;;;;;;;13.07;12.37;;;20.80;43.50;;;;;;5042962;28;20473;-63
2024/01/16 05:40:39;;;;;;;13.80;13.17;;;20.80;43.60;;;;;;5037872;28;20453;-63
2024/01/16 05:43:06;;;;;;;13.70;12.80;;;20.80;44.80;;;;;;5045157;28;20525;-65
2024/01/16 05:45:32;;;;;;;14.80;13.63;;;20.80;45.60;;;;;;5039460;28;20471;-65
2024/01/16 05:47:59;;;;;;;13.00;12.27;;;20.80;46.50;;;;;;5043919;28;20472;-65
2024/01/16 05:50:28;;;;;;;13.40;12.20;;;20.80;46.30;;;;;;5042432;28;21046;-65
2024/01/16 05:52:54;;;;;;;14.00;13.10;;;20.80;46.30;;;;;;5044069;28;20469;-67
2024/01/16 05:55:22;;;;;;;13.77;12.90;;;20.90;46.10;;;;;;5046049;28;20440;-67
2024/01/16 05:57:49;;;;;;;15.23;14.03;;;20.90;45.90;;;;;;5045092;28;20444;-67
2024/01/16 06:00:17;;;;;;;16.30;14.90;;;20.90;45.70;;;;;;5042397;28;20510;-67
2024/01/16 06:02:44;;;;;;;14.83;14.23;;;20.90;45.50;;;;;;5042540;28;20481;-67
2024/01/16 06:05:11;;;;;;;17.17;15.90;;;20.90;45.20;;;;;;5028656;28;20471;-67
2024/01/16 06:07:40;;;;;;;14.53;13.90;;;21.00;45.10;;;;;;5045787;28;20448;-67
2024/01/16 06:10:09;;;;;;;12.80;12.00;;;21.00;44.90;;;;;;5042708;28;20809;-67
2024/01/16 06:12:37;;;;;;;12.50;12.00;;;21.00;44.70;;;;;;5042311;28;21012;-67
2024/01/16 06:15:04;;;;;;;12.83;12.03;;;21.00;44.60;;;;;;5044853;28;20449;-67
2024/01/16 06:17:32;;;;;;;13.57;12.67;;;21.00;44.40;;;;;;5045759;28;20467;-67
2024/01/16 06:19:59;;;;;;;13.37;12.67;;;21.00;44.20;;;;;;5043742;28;20468;-66
2024/01/16 06:22:26;;;;;;;12.63;12.03;;;21.00;44.10;;;;;;5041946;28;20485;-66
2024/01/16 06:24:54;;;;;;;13.30;12.60;;;21.00;44.00;;;;;;5042868;28;20449;-67
2024/01/16 06:27:21;;;;;;;13.70;13.10;;;21.00;43.80;;;;;;5045553;28;20472;-67
2024/01/16 06:29:48;;;;;;;13.57;13.00;;;21.00;43.70;;;;;;5045113;28;20495;-64
2024/01/16 06:32:16;;;;;;;12.60;12.20;;;21.00;43.50;;;;;;5041942;28;20500;-65
2024/01/16 06:34:43;;;;;;;12.90;12.30;;;21.00;43.40;;;;;;5042084;28;20534;-65
2024/01/16 06:37:10;;;;;;;12.67;12.17;;;21.10;43.40;;;;;;5045272;28;20490;-64
2024/01/16 06:39:37;;;;;;;12.83;12.23;;;21.10;43.20;;;;;;5045265;28;20462;-64
2024/01/16 06:42:06;;;;;;;12.40;12.00;;;21.10;43.10;;;;;;5042564;28;20476;-64
2024/01/16 06:44:33;;;;;;;12.77;12.07;;;21.10;43.00;;;;;;5041783;28;20524;-65
2024/01/16 06:47:00;;;;;;;12.03;11.63;;;21.10;42.90;;;;;;5043623;28;20433;-64
2024/01/16 06:49:27;;;;;;;13.23;12.43;;;21.10;42.80;;;;;;5044978;28;20487;-64
2024/01/16 06:51:54;;;;;;;12.70;12.20;;;21.10;42.70;;;;;;5043847;28;20468;-64
2024/01/16 06:54:23;;;;;;;12.27;11.87;;;21.10;42.60;;;;;;5041643;28;20437;-65
2024/01/16 06:56:50;;;;;;;13.03;12.63;;;21.10;42.50;;;;;;5041903;28;20529;-65
2024/01/16 06:59:21;;;;;;;12.83;12.23;;;21.10;42.40;;;;;;5044856;28;20879;-65
2024/01/16 07:01:48;;;;;;;12.67;12.27;;;21.10;42.40;;;;;;5044374;28;20429;-65
2024/01/16 07:04:15;;;;;;;12.53;12.13;;;21.10;42.30;;;;;;5041336;28;20469;-65
2024/01/16 07:06:42;;;;;;;13.00;12.50;;;21.10;42.20;;;;;;5041288;28;20445;-65
2024/01/16 07:09:10;;;;;;;13.53;12.73;;;21.10;42.10;;;;;;5044091;28;20460;-65
2024/01/16 07:11:38;;;;;;;14.40;13.57;;;21.10;42.00;;;;;;5044497;28;20515;-64
2024/01/16 07:14:05;;;;;;;12.60;12.10;;;21.00;41.90;;;;;;5041991;28;20451;-65
2024/01/16 07:16:33;;;;;;;12.77;12.37;;;21.00;41.80;;;;;;5040752;28;20495;-65
2024/01/16 07:19:00;;;;;;;12.37;11.97;;;21.00;41.70;;;;;;5042465;28;20544;-64
2024/01/16 07:21:27;;;;;;;12.57;12.07;;;21.00;41.70;;;;;;5044260;28;20470;-65
2024/01/16 07:23:54;;;;;;;12.40;11.80;;;21.00;41.60;;;;;;5043118;28;21003;-64
2024/01/16 07:26:22;;;;;;;12.10;11.60;;;21.00;41.60;;;;;;5040868;28;20780;-64
2024/01/16 07:28:49;;;;;;;11.83;11.23;;;21.00;41.50;;;;;;5040695;28;20512;-65
2024/01/16 07:31:17;;;;;;;12.13;11.63;;;21.00;42.00;;;;;;5043985;28;20963;-64
2024/01/16 07:33:45;;;;;;;12.40;11.80;;;21.00;41.40;;;;;;5044084;28;20446;-65
2024/01/16 07:36:12;;;;;;;12.37;11.73;;;21.00;41.40;;;;;;5040750;28;20471;-65
2024/01/16 07:38:39;;;;;;;12.20;11.70;;;20.90;41.30;;;;;;5040561;28;20461;-64
2024/01/16 07:41:06;;;;;;;12.20;11.90;;;20.90;41.20;;;;;;5042861;28;20484;-64
2024/01/16 07:43:35;;;;;;;12.50;12.00;;;20.90;41.20;;;;;;5043780;28;20514;-64
2024/01/16 07:46:02;;;;;;;11.10;10.80;;;20.90;41.20;;;;;;5041982;28;20471;-65
2024/01/16 07:48:29;;;;;;;12.83;12.33;;;20.90;41.10;;;;;;5040400;28;20472;-64
2024/01/16 07:50:57;;;;;;;12.20;11.70;;;20.90;41.10;;;;;;5041209;28;20473;-65
2024/01/16 07:53:27;;;;;;;12.97;12.50;;;20.90;41.10;;;;;;5043678;28;20475;-65
2024/01/16 07:55:54;;;;;;;13.63;13.13;;;20.90;41.10;;;;;;5042791;28;20444;-65
2024/01/16 07:58:22;;;;;;;13.07;12.67;;;20.90;41.10;;;;;;5040077;28;20441;-65
2024/01/16 08:00:49;;;;;;;12.60;12.17;;;20.90;41.00;;;;;;5040102;28;20476;-64
2024/01/16 08:03:16;;;;;;;13.00;12.60;;;20.90;41.00;;;;;;5031952;28;21003;-64
2024/01/16 08:05:43;;;;;;;13.50;13.07;;;20.80;40.90;;;;;;5040134;28;20967;-65
2024/01/16 08:08:11;;;;;;;13.00;12.60;;;20.80;40.90;;;;;;5042656;28;20476;-64
2024/01/16 08:10:38;;;;;;;13.60;13.10;;;20.80;40.90;;;;;;5043306;28;20444;-65
2024/01/16 08:13:05;;;;;;;13.97;13.40;;;20.80;40.80;;;;;;5041109;28;20441;-65
2024/01/16 08:15:32;;;;;;;13.10;12.80;;;20.80;40.80;;;;;;5040000;28;20716;-65
2024/01/16 08:17:59;;;;;;;13.67;13.17;;;20.80;40.80;;;;;;5041212;28;20473;-65
2024/01/16 08:20:26;;;;;;;13.10;12.80;;;20.80;40.80;;;;;;5043148;28;20503;-64
2024/01/16 08:22:54;;;;;;;13.63;13.23;;;20.80;40.80;;;;;;5042860;28;20511;-64
2024/01/16 08:25:23;;;;;;;14.50;13.80;;;20.80;40.80;;;;;;5039822;28;20437;-65
2024/01/16 08:27:49;;;;;;;13.00;12.70;;;20.80;40.70;;;;;;5039368;28;20473;-64
2024/01/16 08:30:17;;;;;;;13.23;12.73;;;20.80;40.70;;;;;;5031547;28;20500;-64
2024/01/16 08:32:43;;;;;;;13.00;12.60;;;20.80;40.70;;;;;;5039732;28;20471;-64
2024/01/16 08:35:10;;;;;;;13.47;12.97;;;20.80;40.70;;;;;;5042545;28;20453;-64
2024/01/16 08:37:37;;;;;;;12.80;12.40;;;20.80;40.70;;;;;;5043225;28;20472;-64
2024/01/16 08:40:05;;;;;;;13.33;12.83;;;20.70;40.60;;;;;;5041064;28;20500;-64
2024/01/16 08:42:33;;;;;;;13.23;12.80;;;20.70;40.50;;;;;;5039433;28;20491;-65
2024/01/16 08:45:00;;;;;;;13.03;12.63;;;20.70;40.60;;;;;;5040868;28;20877;-64
2024/01/16 08:47:27;;;;;;;12.83;12.50;;;20.70;40.60;;;;;;5042972;28;20479;-65
2024/01/16 08:49:54;;;;;;;13.10;12.70;;;20.70;40.50;;;;;;5042273;28;20491;-64
2024/01/16 08:52:21;;;;;;;13.23;12.83;;;20.70;40.50;;;;;;5039426;28;20475;-65
2024/01/16 08:54:49;;;;;;;13.50;13.00;;;20.60;40.40;;;;;;5039448;28;20475;-64
2024/01/16 08:57:16;;;;;;;12.87;12.57;;;20.60;40.50;;;;;;5042832;28;20446;-65
2024/01/16 08:59:44;;;;;;;13.37;12.97;;;20.60;40.50;;;;;;5042786;28;20498;-65
2024/01/16 09:02:12;;;;;;;13.27;12.77;;;20.70;40.50;;;;;;5040235;28;20475;-64
2024/01/16 09:04:38;;;;;;;13.37;12.97;;;20.70;40.60;;;;;;5039299;28;20481;-64
2024/01/16 09:07:05;;;;;;;13.77;13.37;;;20.60;40.50;;;;;;5041119;28;20991;-65
2024/01/16 09:09:32;;;;;;;13.70;13.30;;;20.70;40.50;;;;;;5042625;28;20906;-65
2024/01/16 09:11:59;;;;;;;14.80;13.93;;;20.60;40.40;;;;;;5041591;28;20468;-65
2024/01/16 09:14:26;;;;;;;13.73;13.30;;;20.60;40.40;;;;;;5039242;28;20469;-65
2024/01/16 09:16:55;;;;;;;14.53;13.50;;;20.60;40.40;;;;;;5039152;28;20472;-65
2024/01/16 09:19:22;;;;;;;13.63;13.23;;;20.60;40.40;;;;;;5042417;28;20969;-64
2024/01/16 09:21:49;;;;;;;12.70;12.40;;;20.60;40.40;;;;;;5042542;28;20969;-65
2024/01/16 09:24:16;;;;;;;13.03;12.63;;;20.60;40.30;;;;;;5039277;28;20509;-64
2024/01/16 09:26:43;;;;;;;13.70;13.30;;;20.60;40.30;;;;;;5039192;28;20449;-65
2024/01/16 09:29:10;;;;;;;13.40;13.10;;;20.60;40.30;;;;;;5041216;28;20469;-65
2024/01/16 09:31:37;;;;;;;14.27;13.77;;;20.60;40.30;;;;;;5042329;28;20464;-65
2024/01/16 09:34:06;;;;;;;13.30;12.90;;;20.60;40.30;;;;;;5040975;28;20848;-65
2024/01/16 09:36:35;;;;;;;13.60;13.30;;;20.60;40.20;;;;;;5039043;28;20987;-65
2024/01/16 09:39:02;;;;;;;13.40;13.10;;;20.60;40.20;;;;;;5040561;28;20472;-64
2024/01/16 09:41:32;;;;;;;13.87;13.47;;;20.50;40.20;;;;;;5046214;28;20902;-66
2024/01/16 09:43:59;;;;;;;13.67;13.27;;;20.50;40.10;;;;;;5045192;28;20472;-65
2024/01/16 09:46:27;;;;;;;13.60;13.27;;;20.50;40.70;;;;;;5042827;28;20473;-65
2024/01/16 09:48:56;;;;;;;13.60;13.20;;;20.50;40.10;;;;;;5042550;28;20497;-64
2024/01/16 09:51:25;;;;;;;13.60;13.10;;;20.50;40.10;;;;;;5045956;28;20436;-66
2024/01/16 09:53:52;;;;;;;14.20;13.80;;;20.50;40.10;;;;;;5045949;28;20479;-65
2024/01/16 09:56:24;;;;;;;13.10;12.80;;;20.50;40.10;;;;;;5034332;28;20475;-65
2024/01/16 09:58:55;;;;;;;14.00;13.53;;;20.50;40.10;;;;;;5042480;28;20948;-65
2024/01/16 10:01:24;;;;;;;13.60;13.20;;;20.40;40.00;;;;;;5034597;28;20848;-65
2024/01/16 10:03:51;;;;;;;13.80;13.40;;;20.50;40.10;;;;;;5042330;28;20505;-66
2024/01/16 10:06:20;;;;;;;12.97;12.67;;;20.40;40.00;;;;;;5045431;28;20444;-66
2024/01/16 10:08:48;;;;;;;13.50;13.10;;;20.50;40.10;;;;;;5045582;28;20879;-66
2024/01/16 10:11:15;;;;;;;13.97;13.57;;;20.40;40.60;;;;;;5042605;28;20484;-66
2024/01/16 10:13:44;;;;;;;13.37;12.97;;;20.40;40.00;;;;;;5042379;28;20461;-66
2024/01/16 10:16:11;;;;;;;14.00;13.43;;;20.50;40.10;;;;;;5044214;28;20477;-66
2024/01/16 10:18:38;;;;;;;13.73;13.30;;;20.50;40.10;;;;;;5045373;28;20499;-66
2024/01/16 10:21:05;;;;;;;13.60;13.20;;;20.40;40.00;;;;;;5044004;28;20835;-65
2024/01/16 10:23:34;;;;;;;13.60;13.20;;;20.40;40.00;;;;;;5041819;28;20501;-66
2024/01/16 10:26:09;;;;;;;13.20;12.80;;;20.40;40.00;;;;;;5042521;28;20529;-66
2024/01/16 10:28:36;;;;;;;13.60;13.20;;;20.40;40.00;;;;;;5045198;28;20495;-66
2024/01/16 10:31:04;;;;;;;13.97;13.57;;;20.50;40.10;;;;;;5044154;28;20472;-66
2024/01/16 10:33:30;;;;;;;14.10;13.70;;;20.40;40.00;;;;;;5041979;28;20429;-66
2024/01/16 10:36:10;;;;;;;13.63;13.23;;;20.40;40.00;;;;;;5041962;28;20527;-66
2024/01/16 10:38:39;;;;;;;14.07;13.67;;;20.50;40.00;;;;;;5045159;28;20501;-66
2024/01/16 10:41:09;;;;;;;14.00;13.60;;;20.50;40.00;;;;;;5043706;28;20440;-66
2024/01/16 10:43:37;;;;;;;13.80;13.30;;;20.40;39.90;;;;;;5041596;28;20560;-66
2024/01/16 10:46:11;;;;;;;13.70;13.20;;;20.40;39.90;;;;;;5042450;28;20845;-66
2024/01/16 10:48:40;;;;;;;12.90;12.60;;;20.40;39.90;;;;;;5044851;28;20584;-66
2024/01/16 10:51:08;;;;;;;14.20;13.80;;;20.40;40.00;;;;;;5042614;28;20977;-66
2024/01/16 10:53:35;;;;;;;13.93;13.53;;;20.40;39.90;;;;;;5041464;28;20437;-66
2024/01/16 10:56:06;;;;;;;13.50;13.10;;;20.40;39.90;;;;;;5042123;28;20541;-66
2024/01/16 10:58:37;;;;;;;14.50;14.10;;;20.40;39.90;;;;;;5044858;28;20488;-66
2024/01/16 11:01:05;;;;;;;14.67;14.17;;;20.40;39.90;;;;;;5043799;28;20471;-66
2024/01/16 11:03:39;;;;;;;15.00;14.40;;;20.40;39.90;;;;;;5041179;28;20481;-65
2024/01/16 11:06:08;;;;;;;14.17;13.77;;;20.30;39.70;;;;;;5042295;28;20444;-66
2024/01/16 11:08:37;;;;;;;13.87;13.37;;;20.40;39.80;;;;;;5044454;28;20456;-67
2024/01/16 11:11:05;;;;;;;13.90;13.40;;;20.30;39.70;;;;;;5043553;28;20875;-66
2024/01/16 11:13:35;;;;;;;14.53;14.10;;;20.30;39.70;;;;;;5041000;28;20894;-66
2024/01/16 11:16:03;;;;;;;13.50;13.10;;;20.30;39.70;;;;;;5041626;28;20455;-66
2024/01/16 11:18:32;;;;;;;13.10;12.67;;;20.30;39.70;;;;;;5044316;28;20467;-66
2024/01/16 11:21:00;;;;;;;13.67;13.33;;;20.30;39.80;;;;;;5044037;28;20462;-67
2024/01/16 11:23:27;;;;;;;13.67;13.27;;;20.30;39.80;;;;;;5040875;28;20490;-66
2024/01/16 11:25:54;;;;;;;13.50;13.10;;;20.30;39.70;;;;;;5040863;28;20468;-66
2024/01/16 11:28:21;;;;;;;13.90;13.50;;;20.30;39.70;;;;;;5043730;28;20881;-66
2024/01/16 11:30:49;;;;;;;13.80;13.40;;;20.40;39.80;;;;;;5044173;28;20440;-65
2024/01/16 11:33:44;;;;;;;13.77;13.37;;;20.40;39.80;;;;;;5041604;28;20541;-66
2024/01/16 11:36:44;;;;;;;13.17;12.80;;;20.40;39.80;;;;;;5042154;28;20473;-66
2024/01/16 11:39:17;;;;;;;13.60;13.10;;;20.40;39.70;;;;;;5042136;28;20456;-66
2024/01/16 11:41:57;;;;;;;13.70;13.30;;;20.40;39.70;;;;;;5040564;28;20952;-66
2024/01/16 11:44:46;;;;;;;14.30;13.90;;;20.40;39.70;;;;;;5027642;28;20510;-65
2024/01/16 11:47:19;;;;;;;13.50;13.10;;;20.40;39.70;;;;;;5041830;28;20448;-66
2024/01/16 11:49:47;;;;;;;13.60;13.20;;;20.40;39.70;;;;;;5040305;28;20465;-66
2024/01/16 11:52:14;;;;;;;13.50;13.20;;;20.40;39.70;;;;;;5042256;28;20483;-66
2024/01/16 11:54:42;;;;;;;13.40;13.10;;;20.40;39.70;;;;;;5043702;28;20950;-66
2024/01/16 11:57:52;;;;;;;14.00;13.60;;;20.30;39.60;;;;;;5042183;28;20878;-66
2024/01/16 12:00:22;;;;;;;14.20;13.80;;;20.40;39.70;;;;;;4981456;28;20490;-66
2024/01/16 12:02:57;;;;;;;13.73;13.40;;;20.30;39.50;;;;;;4981272;28;20482;-65
2024/01/16 12:05:24;;;;;;;13.97;13.57;;;20.30;39.50;;;;;;5014756;28;20996;-66
2024/01/16 12:07:54;;;;;;;14.37;13.87;;;20.30;39.50;;;;;;5040096;28;20438;-66
2024/01/16 12:10:23;;;;;;;14.30;13.90;;;20.30;39.50;;;;;;5042854;28;20467;-66
2024/01/16 12:12:51;;;;;;;14.80;14.40;;;20.30;39.50;;;;;;5043362;28;20472;-65
2024/01/16 12:15:19;;;;;;;14.50;14.00;;;20.30;39.50;;;;;;5040838;28;20479;-66
2024/01/16 12:17:58;;;;;;;14.40;14.00;;;20.40;39.50;;;;;;5040006;28;20476;-66
2024/01/16 12:20:26;;;;;;;14.23;13.83;;;20.30;39.40;;;;;;5069313;22;20531;-65
2024/01/16 12:22:57;;;;;;;14.60;14.20;;;20.30;39.40;;;;;;5039713;28;20492;-65
2024/01/16 12:25:24;;;;;;;14.40;13.90;;;20.40;39.50;;;;;;5042770;28;20511;-65
2024/01/16 12:27:58;;;;;;;14.83;14.33;;;20.40;39.50;;;;;;5043172;28;20437;-65
2024/01/16 12:30:28;;;;;;;14.67;14.27;;;20.40;40.00;;;;;;5031426;28;21211;-65
2024/01/16 12:33:06;;;;;;;14.00;13.60;;;20.40;39.40;;;;;;5031467;28;20477;-64
2024/01/16 12:35:34;;;;;;;14.30;13.90;;;20.30;39.30;;;;;;5017230;28;20437;-65